createdAt,value
2017-10-23T00:03:32.536Z,13.685194
2017-10-23T00:23:37.739Z,13.685194
2017-10-23T00:43:42.927Z,13.685194
2017-10-23T01:03:47.661Z,13.685194
2017-10-23T01:23:53.356Z,13.685194
2017-10-23T01:43:57.804Z,13.622181999999999
2017-10-23T02:04:02.799Z,13.622181999999999
2017-10-23T02:24:08.853Z,13.622181999999999
2017-10-23T02:44:13.160Z,13.559704
2017-10-23T03:04:18.235Z,13.622181999999999
2017-10-23T03:24:23.213Z,13.559704
2017-10-23T03:44:28.212Z,13.559704
2017-10-23T04:04:33.184Z,13.559704
2017-10-23T04:24:38.430Z,13.559704
2017-10-23T04:44:43.922Z,13.559704
2017-10-23T05:04:48.289Z,13.497225999999998
2017-10-23T05:24:53.577Z,13.497225999999998
2017-10-23T05:44:58.313Z,13.497225999999998
2017-10-23T06:05:03.344Z,13.497225999999998
2017-10-23T06:25:08.394Z,13.497225999999998
2017-10-23T06:45:13.801Z,13.497225999999998
2017-10-23T07:45:29.414Z,13.434747999999999
2017-10-23T08:05:33.760Z,13.434747999999999
2017-10-23T08:25:38.943Z,13.434747999999999
2017-10-23T08:45:43.882Z,13.434747999999999
2017-10-23T09:05:49.483Z,13.434747999999999
2017-10-23T09:25:53.800Z,13.434747999999999
2017-10-23T09:45:59.321Z,13.434747999999999
2017-10-23T10:06:03.960Z,13.434747999999999
2017-10-23T10:26:08.916Z,13.434747999999999
2017-10-23T12:46:44.196Z,13.497225999999998
2017-10-23T13:06:49.418Z,13.434747999999999
2017-10-23T13:26:54.417Z,13.434747999999999
2017-10-23T13:46:59.488Z,13.434747999999999
2017-10-23T14:07:04.469Z,13.434747999999999
2017-10-23T14:27:09.541Z,13.434747999999999
2017-10-23T14:47:14.600Z,13.37227
2017-10-23T15:27:24.547Z,13.37227
2017-10-23T15:47:29.690Z,13.37227
2017-10-23T16:07:34.609Z,13.37227
2017-10-23T16:27:39.799Z,13.37227
2017-10-23T16:47:44.692Z,13.309791999999998
2017-10-23T17:07:49.767Z,13.37227
2017-10-23T17:27:54.786Z,13.309791999999998
2017-10-23T17:47:59.824Z,13.309791999999998
2017-10-23T18:08:04.941Z,13.309791999999998
2017-10-23T18:28:09.914Z,13.309791999999998
2017-10-23T18:48:14.058Z,13.309791999999998
2017-10-23T19:08:19.054Z,13.309791999999998
2017-10-23T19:28:24.142Z,13.309791999999998
2017-10-23T19:48:29.139Z,13.309791999999998
2017-10-23T20:08:34.291Z,13.309791999999998
2017-10-23T20:48:44.264Z,13.309791999999998
2017-10-23T21:08:49.278Z,13.309791999999998
2017-10-23T21:28:54.469Z,13.247314
2017-10-23T21:48:59.387Z,13.247314
2017-10-23T22:09:04.546Z,13.247314
2017-10-23T22:29:09.588Z,13.247314
2017-10-23T22:49:14.610Z,13.247314
2017-10-23T23:09:19.582Z,13.247314
2017-10-23T23:29:24.631Z,13.247314
2017-10-23T23:49:29.753Z,13.247314
